METAR Data
IDs: Format: Raw Decoded Include TAF

Data at: 1116 UTC 16 Feb 2019

PAGY 161053Z AUTO 03015KT 10SM FEW070 M06/M17 A3029 RMK AO2 SLP258 T10611172 TSNO
PAGY 160953Z AUTO 03015G20KT 10SM CLR M06/M17 A3026 RMK AO2 SLP248 T10561172 TSNO
PAGY 160853Z AUTO 02010KT 10SM BKN065 M06/M17 A3024 RMK AO2 SLP242 T10561172 410281056 53026 TSNO
PAGY 160753Z AUTO 02012G19KT 10SM OVC065 M06/M17 A3021 RMK AO2 SLP230 T10561167 TSNO
PAGY 160653Z AUTO 04014KT 10SM OVC070 M06/M17 A3019 RMK AO2 SLP224 T10561167 TSNO
PAGY 160553Z AUTO 04014KT 10SM OVC070 M06/M17 A3017 RMK AO2 SLP216 T10561167 11039 21056 53021 TSNO
PAGY 160453Z AUTO 04016G23KT 10SM FEW075 M06/M17 A3014 RMK AO2 SLP208 T10561167 TSNO
PAGY 160353Z AUTO 03010G19KT 10SM FEW075 M05/M17 A3012 RMK AO2 SLP201 T10501167 TSNO
PAGY 160253Z AUTO 03010KT 10SM BKN065 BKN095 BKN120 M05/M16 A3011 RMK AO2 SLP194 T10501161 52024 TSNO
PAGY 160153Z AUTO 04017G23KT 10SM OVC070 M05/M16 A3008 RMK AO2 PK WND 04026/0131 SLP186 T10501161 TSNO
PAGY 160053Z AUTO 05020G25KT 10SM BKN070 M04/M17 A3006 RMK AO2 PK WND 04026/0012 SLP178 T10441167 TSNO
PAGY 152353Z AUTO 05018G26KT 10SM FEW065 M04/M17 A3003 RMK AO2 PK WND 04029/2303 SLP170 T10391172 11039 21056 51015 TSNO
PAGY 152253Z AUTO 04018KT 10SM SCT065 M04/M17 A3002 RMK AO2 PK WND 05029/2230 SLP166 T10391167 TSNO
PAGY 152153Z AUTO 04020G26KT 10SM CLR M04/M17 A3001 RMK AO2 PK WND 05026/2151 SLP161 T10391172 TSNO
PAGY 152053Z AUTO 04019KT 10SM FEW100 M04/M16 A2999 RMK AO2 SLP156 T10391161 51016 TSNO
PAGY 151953Z AUTO 03015KT 10SM FEW055 M04/M16 A2998 RMK AO2 SLP151 T10441161 TSNO
PAGY 151853Z AUTO 02014G20KT 10SM FEW080 M05/M16 A2996 RMK AO2 SLP146 T10501156 TSNO
PAGY 151753Z AUTO 03018G23KT 10SM CLR M06/M16 A2994 RMK AO2 SLP139 T10561156 11039 21056 53017 TSNO
PAGY 151653Z AUTO 02019G25KT 10SM FEW070 M05/M16 A2991 RMK AO2 SLP130 T10501156 TSNO
PAGY 151553Z AUTO 03019G24KT 10SM OVC065 M05/M16 A2990 RMK AO2 SLP125 T10501156 TSNO
PAGY 151453Z AUTO 03016KT 10SM OVC065 M05/M15 A2989 RMK AO2 SLP122 T10501150 53004 TSNO
PAGY 151353Z AUTO 03016KT 10SM OVC065 M04/M15 A2988 RMK AO2 SLP119 T10441150 TSNO
PAGY 151253Z AUTO 03018G23KT 10SM BKN065 M04/M14 A2987 RMK AO2 SLP116 T10391144 TSNO
PAGY 151153Z AUTO 03013G21KT 10SM BKN065 M04/M14 A2988 RMK AO2 SLP118 T10391144 11022 21039 55002 TSNO
PAGY 151053Z AUTO 03015G23KT 10SM FEW065 M03/M14 A2988 RMK AO2 SLP117 T10331144 TSNO
PAGY 150953Z AUTO 03016KT 10SM BKN065 M03/M14 A2988 RMK AO2 SLP118 T10331144 TSNO
PAGY 150853Z AUTO 02012KT 10SM OVC070 M03/M14 A2989 RMK AO2 SLP120 T10281144 410061028 55000 TSNO
PAGY 150753Z AUTO 02011KT 10SM OVC070 M03/M14 A2988 RMK AO2 SLP120 T10281139 TSNO
PAGY 150653Z AUTO 03010KT 10SM OVC070 M03/M13 A2989 RMK AO2 SLP121 T10281133 TSNO
PAGY 150553Z AUTO 02010G20KT 10SM OVC070 M02/M13 A2989 RMK AO2 SLP121 T10221128 11011 21022 58004 TSNO
PAGY 150453Z AUTO 02012KT 10SM OVC065 M02/M13 A2990 RMK AO2 SLP123 T10221128 TSNO
PAGY 150353Z AUTO 02012KT 10SM OVC065 M02/M12 A2990 RMK AO2 SLP124 T10221122 TSNO
PAGY 150253Z AUTO 03014KT 10SM OVC065 M02/M13 A2990 RMK AO2 SLP124 T10171128 50000 TSNO
PAGY 150153Z AUTO 02011KT 10SM OVC065 M02/M13 A2990 RMK AO2 SLP125 T10171128 TSNO
PAGY 150053Z AUTO 03012KT 10SM OVC070 M02/M13 A2990 RMK AO2 SLP125 T10171128 TSNO
PAGY 142353Z AUTO 03017G23KT 10SM OVC065 M01/M13 A2990 RMK AO2 SLP124 T10111128 11006 21028 56011 TSNO